createdAt,value
2018-09-01T00:01:05.907Z,65.60
2018-09-01T00:03:35.033Z,65.60
2018-09-01T00:06:04.168Z,65.30
2018-09-01T00:08:33.042Z,65.40
2018-09-01T00:11:02.133Z,65.10
2018-09-01T00:13:31.078Z,65.20
2018-09-01T00:16:00.560Z,65.10
2018-09-01T00:18:29.853Z,64.70
2018-09-01T00:20:58.722Z,64.80
2018-09-01T00:23:27.879Z,64.70
2018-09-01T00:25:57.229Z,64.80
2018-09-01T00:28:26.181Z,65.40
2018-09-01T00:30:55.674Z,65.30
2018-09-01T00:33:24.502Z,65.30
2018-09-01T00:35:53.640Z,64.80
2018-09-01T00:38:29.006Z,65.20
2018-09-01T00:40:57.864Z,65.40
2018-09-01T00:43:27.060Z,65.30
2018-09-01T00:45:56.207Z,65.20
2018-09-01T00:48:25.096Z,65.30
2018-09-01T00:50:54.348Z,64.60
2018-09-01T00:53:23.456Z,64.90
2018-09-01T00:55:52.736Z,65.00
2018-09-01T00:58:21.760Z,65.30
2018-09-01T01:00:50.787Z,65.20
2018-09-01T01:03:19.763Z,65.70
2018-09-01T01:05:49.433Z,65.70
2018-09-01T01:08:19.555Z,65.30
2018-09-01T01:10:48.769Z,65.50
2018-09-01T01:13:18.245Z,66.40
2018-09-01T01:15:47.059Z,66.20
2018-09-01T01:18:16.233Z,67.30
2018-09-01T01:20:45.008Z,66.60
2018-09-01T01:23:13.796Z,66.30
2018-09-01T01:25:42.639Z,67.40
2018-09-01T01:28:11.469Z,67.60
2018-09-01T01:30:40.246Z,67.50
2018-09-01T01:33:09.376Z,67.50
2018-09-01T01:35:38.500Z,67.40
2018-09-01T01:38:07.681Z,67.30
2018-09-01T01:40:36.474Z,67.30
2018-09-01T01:43:05.596Z,67.40
2018-09-01T01:45:34.844Z,68.10
2018-09-01T01:48:04.002Z,68.10
2018-09-01T01:50:32.853Z,68.20
2018-09-01T01:53:02.106Z,68.30
2018-09-01T01:55:31.517Z,68.60
2018-09-01T01:58:00.489Z,69.10
2018-09-01T02:00:30.419Z,69.20
2018-09-01T02:02:59.560Z,69.40
2018-09-01T02:05:30.831Z,69.90
2018-09-01T02:08:00.331Z,70.20
2018-09-01T02:10:29.407Z,70.60
2018-09-01T02:12:58.756Z,70.90
2018-09-01T02:15:27.737Z,71.50
2018-09-01T02:17:57.205Z,71.60
2018-09-01T02:20:26.183Z,71.20
2018-09-01T02:22:55.005Z,72.70
2018-09-01T02:25:25.132Z,71.90
2018-09-01T02:27:54.215Z,72.40
2018-09-01T02:30:23.330Z,72.70
2018-09-01T02:32:52.473Z,73.10
2018-09-01T02:35:21.247Z,73.40
2018-09-01T02:37:50.409Z,73.90
2018-09-01T02:40:19.303Z,73.60
2018-09-01T02:42:48.112Z,74.10
2018-09-01T02:45:17.228Z,74.10
2018-09-01T02:47:46.392Z,75.60
2018-09-01T02:50:15.395Z,75.50
2018-09-01T02:52:44.401Z,76.00
2018-09-01T02:55:14.031Z,76.40
2018-09-01T02:57:43.727Z,76.90
2018-09-01T03:00:18.713Z,77.30
2018-09-01T03:02:47.808Z,77.80
2018-09-01T03:05:17.086Z,76.60
2018-09-01T03:07:46.125Z,77.60
2018-09-01T03:10:15.331Z,76.70
2018-09-01T03:12:44.764Z,77.10
2018-09-01T03:15:13.873Z,77.20
2018-09-01T03:17:42.999Z,77.60
2018-09-01T03:20:12.670Z,76.50
2018-09-01T03:22:42.476Z,76.50
2018-09-01T03:25:11.484Z,76.50
2018-09-01T03:27:40.712Z,76.60
2018-09-01T03:30:09.567Z,76.50
2018-09-01T03:32:38.848Z,76.70
2018-09-01T03:35:07.644Z,76.90
2018-09-01T03:37:36.470Z,77.00
2018-09-01T03:40:05.901Z,77.40
2018-09-01T03:42:35.061Z,77.10
2018-09-01T03:45:03.924Z,76.70
2018-09-01T03:47:32.883Z,77.20
2018-09-01T03:50:02.349Z,77.40
2018-09-01T03:52:31.231Z,77.70
2018-09-01T03:55:00.376Z,77.90
2018-09-01T03:57:29.139Z,78.20
2018-09-01T03:59:58.569Z,78.40
2018-09-01T04:02:27.637Z,78.30
2018-09-01T04:04:56.834Z,78.40
2018-09-01T04:07:26.891Z,79.20
2018-09-01T04:09:55.982Z,78.70
2018-09-01T04:12:24.853Z,79.30
2018-09-01T04:14:53.876Z,78.90
2018-09-01T04:17:23.266Z,78.90
2018-09-01T04:19:52.246Z,78.90
2018-09-01T04:22:21.497Z,79.60
2018-09-01T04:24:51.064Z,79.70
2018-09-01T04:27:20.462Z,79.70
2018-09-01T04:29:50.367Z,80.10
2018-09-01T04:32:19.683Z,79.80
2018-09-01T04:34:49.072Z,79.50
2018-09-01T04:37:18.223Z,79.10
2018-09-01T04:39:47.001Z,79.10
2018-09-01T04:42:16.704Z,78.90
2018-09-01T04:44:45.802Z,78.70
2018-09-01T04:47:14.584Z,79.10
2018-09-01T04:49:43.710Z,78.60
2018-09-01T04:52:12.668Z,78.50
2018-09-01T04:54:41.802Z,78.40
2018-09-01T04:57:10.892Z,78.30
2018-09-01T04:59:40.035Z,78.10
2018-09-01T05:02:09.213Z,77.80
2018-09-01T05:04:37.972Z,78.10
2018-09-01T05:07:07.169Z,77.40
2018-09-01T05:09:36.660Z,77.20
2018-09-01T05:12:06.025Z,76.70
2018-09-01T05:14:34.910Z,76.00
2018-09-01T05:17:03.747Z,75.10
2018-09-01T05:19:32.893Z,72.90
2018-09-01T05:22:02.960Z,69.70
2018-09-01T05:24:32.127Z,67.00
2018-09-01T05:27:01.465Z,64.40
2018-09-01T05:29:30.664Z,61.90
2018-09-01T05:32:00.143Z,59.80
2018-09-01T05:34:29.358Z,59.20
2018-09-01T05:36:58.721Z,57.00
2018-09-01T05:39:27.534Z,56.00
2018-09-01T05:41:56.380Z,54.70
2018-09-01T05:44:25.496Z,53.20
2018-09-01T05:46:54.614Z,51.70
2018-09-01T05:49:23.386Z,50.40
2018-09-01T05:51:52.516Z,49.00
2018-09-01T05:54:21.276Z,47.90
2018-09-01T05:56:50.768Z,46.90
2018-09-01T05:59:20.095Z,47.20
2018-09-01T06:01:49.794Z,46.00
2018-09-01T06:04:19.209Z,46.10
2018-09-01T06:06:49.123Z,46.10
2018-09-01T06:09:18.727Z,45.00
2018-09-01T06:11:48.973Z,43.40
2018-09-01T06:14:18.292Z,42.10
2018-09-01T06:16:47.686Z,42.10
2018-09-01T06:19:17.514Z,42.30
2018-09-01T06:21:47.894Z,41.60
2018-09-01T06:24:17.527Z,41.20
2018-09-01T06:26:48.558Z,39.90
2018-09-01T06:29:22.824Z,40.20
2018-09-01T06:31:59.382Z,40.70
2018-09-01T06:34:29.064Z,40.70
2018-09-01T06:36:58.400Z,41.30
2018-09-01T06:39:27.744Z,40.60
2018-09-01T06:41:57.077Z,40.30
2018-09-01T06:44:26.744Z,40.60
2018-09-01T06:46:56.070Z,39.60
2018-09-01T06:49:25.762Z,39.40
2018-09-01T06:51:55.217Z,38.40
2018-09-01T06:54:25.671Z,38.30
2018-09-01T06:56:55.539Z,37.60
2018-09-01T06:59:25.215Z,38.00
2018-09-01T07:01:54.949Z,36.40
2018-09-01T07:04:24.739Z,38.30
2018-09-01T07:06:54.382Z,37.40
2018-09-01T07:09:24.673Z,38.60
2018-09-01T07:11:56.093Z,39.40
2018-09-01T07:14:32.531Z,41.00
2018-09-01T07:17:02.267Z,40.90
2018-09-01T07:19:37.400Z,40.60
2018-09-01T07:22:07.153Z,38.90
2018-09-01T07:24:36.898Z,38.70
2018-09-01T07:27:06.623Z,37.20
2018-09-01T07:29:36.664Z,38.60
2018-09-01T07:32:06.066Z,36.60
2018-09-01T07:34:35.760Z,35.60
2018-09-01T07:37:05.280Z,35.20
2018-09-01T07:39:34.760Z,35.70
2018-09-01T07:42:04.777Z,35.50
2018-09-01T07:44:35.374Z,38.70
2018-09-01T07:47:05.212Z,38.50
2018-09-01T07:49:35.161Z,39.60
2018-09-01T07:52:04.875Z,40.80
2018-09-01T07:54:34.668Z,41.50
2018-09-01T07:57:05.474Z,41.40
2018-09-01T07:59:36.245Z,39.70
2018-09-01T08:02:08.786Z,37.90
2018-09-01T08:04:38.291Z,36.00
2018-09-01T08:07:07.858Z,35.10
2018-09-01T08:09:38.365Z,34.80
2018-09-01T08:12:08.114Z,35.80
2018-09-01T08:14:37.564Z,39.80
2018-09-01T08:17:07.750Z,38.90
2018-09-01T08:19:37.597Z,36.80
2018-09-01T08:22:07.358Z,36.30
2018-09-01T08:24:36.677Z,35.80
2018-09-01T08:27:13.491Z,35.60
2018-09-01T08:29:43.437Z,39.40
2018-09-01T08:32:12.936Z,40.10
2018-09-01T08:34:42.636Z,40.40
2018-09-01T08:37:12.747Z,38.60
2018-09-01T08:39:42.413Z,38.40
2018-09-01T08:42:11.786Z,40.20
2018-09-01T08:44:41.131Z,42.50
2018-09-01T08:47:15.702Z,43.20
2018-09-01T08:49:45.073Z,44.00
2018-09-01T08:52:14.717Z,44.10
2018-09-01T08:54:44.366Z,44.30
2018-09-01T08:57:14.682Z,44.10
2018-09-01T08:59:44.100Z,44.30
2018-09-01T09:02:14.021Z,43.80
2018-09-01T09:04:43.526Z,44.50
2018-09-01T09:07:13.386Z,44.60
2018-09-01T09:09:43.386Z,44.10
2018-09-01T09:12:15.789Z,45.30
2018-09-01T09:14:45.684Z,41.90
2018-09-01T09:17:15.548Z,40.00
2018-09-01T09:19:45.569Z,42.60
2018-09-01T09:22:15.342Z,44.60
2018-09-01T09:24:49.075Z,46.90
2018-09-01T09:27:19.575Z,49.00
2018-09-01T09:29:48.472Z,49.80
2018-09-01T09:32:17.496Z,49.30
2018-09-01T09:34:47.079Z,48.90
2018-09-01T09:37:18.357Z,49.40
2018-09-01T09:39:47.669Z,49.10
2018-09-01T09:42:16.852Z,50.90
2018-09-01T09:44:46.458Z,52.20
2018-09-01T09:47:15.922Z,52.60
2018-09-01T09:49:44.945Z,51.10
2018-09-01T09:52:14.142Z,53.80
2018-09-01T09:54:45.042Z,54.40
2018-09-01T09:57:17.785Z,54.30
2018-09-01T09:59:47.435Z,52.80
2018-09-01T10:02:16.868Z,52.50
2018-09-01T10:04:46.298Z,53.70
2018-09-01T10:07:16.026Z,55.30
2018-09-01T10:09:46.256Z,57.30
2018-09-01T10:12:15.628Z,57.40
2018-09-01T10:14:44.732Z,57.10
2018-09-01T10:17:13.580Z,57.70
2018-09-01T10:19:42.488Z,55.80
2018-09-01T10:22:11.239Z,54.70
2018-09-01T10:24:40.378Z,54.40
2018-09-01T10:27:09.608Z,53.50
2018-09-01T10:29:38.513Z,52.50
2018-09-01T10:32:08.094Z,51.20
2018-09-01T10:34:36.844Z,52.00
2018-09-01T10:37:05.977Z,52.20
2018-09-01T10:39:35.105Z,53.40
2018-09-01T10:42:04.233Z,53.50
2018-09-01T10:44:33.602Z,53.10
2018-09-01T10:47:02.973Z,52.70
2018-09-01T10:49:32.197Z,50.50
2018-09-01T10:52:02.013Z,51.50
2018-09-01T10:54:31.413Z,52.00
2018-09-01T10:57:00.610Z,52.00
2018-09-01T10:59:30.404Z,51.70
2018-09-01T11:01:59.239Z,52.90
2018-09-01T11:04:28.699Z,55.00
2018-09-01T11:06:58.166Z,55.70
2018-09-01T11:09:29.311Z,56.60
2018-09-01T11:11:58.690Z,56.40
2018-09-01T11:14:27.803Z,56.70
2018-09-01T11:16:58.285Z,57.30
2018-09-01T11:19:27.747Z,57.20
2018-09-01T11:21:59.848Z,57.00
2018-09-01T11:24:30.482Z,55.90
2018-09-01T11:26:59.818Z,56.20
2018-09-01T11:29:29.030Z,55.20
2018-09-01T11:31:59.316Z,54.70
2018-09-01T11:34:28.575Z,53.90
2018-09-01T11:36:58.122Z,53.60
2018-09-01T11:39:26.929Z,53.40
2018-09-01T11:41:56.081Z,53.00
2018-09-01T11:44:25.112Z,54.30
2018-09-01T11:46:54.425Z,55.20
2018-09-01T11:49:23.517Z,55.50
2018-09-01T11:51:52.349Z,55.40
2018-09-01T11:54:21.164Z,54.30
2018-09-01T11:56:49.976Z,54.50
2018-09-01T11:59:19.154Z,54.70
2018-09-01T12:01:48.222Z,54.20
2018-09-01T12:04:17.040Z,54.30
2018-09-01T12:06:46.517Z,54.20
2018-09-01T12:09:15.514Z,54.10
2018-09-01T12:11:45.032Z,53.70
2018-09-01T12:14:13.950Z,54.10
2018-09-01T12:16:43.043Z,52.60
2018-09-01T12:19:12.687Z,53.30
2018-09-01T12:21:41.848Z,54.90
2018-09-01T12:24:11.070Z,55.60
2018-09-01T12:26:40.620Z,55.80
2018-09-01T12:29:10.140Z,56.00
2018-09-01T12:31:39.545Z,55.20
2018-09-01T12:34:10.321Z,55.00
2018-09-01T12:36:39.315Z,55.90
2018-09-01T12:39:08.240Z,55.40
2018-09-01T12:41:37.412Z,56.00
2018-09-01T12:44:06.794Z,56.20
2018-09-01T12:46:35.916Z,56.40
2018-09-01T12:49:05.137Z,57.10
2018-09-01T12:51:33.933Z,58.10
2018-09-01T12:54:03.430Z,57.80
2018-09-01T12:56:32.547Z,58.60
2018-09-01T12:59:02.504Z,57.10
2018-09-01T13:01:31.286Z,57.00
2018-09-01T13:04:00.073Z,56.60
2018-09-01T13:06:28.860Z,57.40
2018-09-01T13:08:57.771Z,57.60
2018-09-01T13:11:26.787Z,57.70
2018-09-01T13:13:55.950Z,57.60
2018-09-01T13:16:25.091Z,56.30
2018-09-01T13:18:54.543Z,55.70
2018-09-01T13:21:24.102Z,56.70
2018-09-01T13:23:53.364Z,55.90
2018-09-01T13:26:23.161Z,56.70
2018-09-01T13:28:52.422Z,56.00
2018-09-01T13:31:22.021Z,55.30
2018-09-01T13:33:51.145Z,57.50
2018-09-01T13:36:20.423Z,55.90
2018-09-01T13:38:49.506Z,56.80
2018-09-01T13:41:19.424Z,56.30
2018-09-01T13:43:48.771Z,56.70
2018-09-01T13:46:18.285Z,57.00
2018-09-01T13:48:47.238Z,57.10
2018-09-01T13:51:16.839Z,57.70
2018-09-01T13:53:46.308Z,57.30
2018-09-01T13:56:15.086Z,57.80
2018-09-01T13:58:44.246Z,58.00
2018-09-01T14:01:13.751Z,58.60
2018-09-01T14:03:42.644Z,57.50
2018-09-01T14:06:11.868Z,58.50
2018-09-01T14:08:42.318Z,58.30
2018-09-01T14:11:13.148Z,58.50
2018-09-01T14:13:55.656Z,59.00
2018-09-01T14:16:25.221Z,57.70
2018-09-01T14:18:54.538Z,57.70
2018-09-01T14:21:23.722Z,56.90
2018-09-01T14:23:52.815Z,56.50
2018-09-01T14:26:22.096Z,56.10
2018-09-01T14:28:51.484Z,56.90
2018-09-01T14:31:20.893Z,56.60
2018-09-01T14:33:50.104Z,55.80
2018-09-01T14:36:19.252Z,56.50
2018-09-01T14:38:48.625Z,56.80
2018-09-01T14:41:17.750Z,57.10
2018-09-01T14:43:46.564Z,56.80
2018-09-01T14:46:16.401Z,56.60
2018-09-01T14:48:45.863Z,57.60
2018-09-01T14:51:14.689Z,56.70
2018-09-01T14:53:43.511Z,56.80
2018-09-01T14:56:12.904Z,56.40
2018-09-01T14:58:42.045Z,56.60
2018-09-01T15:01:11.095Z,57.20
2018-09-01T15:03:40.087Z,57.80
2018-09-01T15:06:09.643Z,57.20
2018-09-01T15:08:38.615Z,57.20
2018-09-01T15:11:07.995Z,56.30
2018-09-01T15:13:37.613Z,55.40
2018-09-01T15:16:07.026Z,54.80
2018-09-01T15:18:36.278Z,55.30
2018-09-01T15:21:05.378Z,56.80
2018-09-01T15:23:35.028Z,56.70
2018-09-01T15:26:05.153Z,55.00
2018-09-01T15:28:34.788Z,54.60
2018-09-01T15:31:03.782Z,54.60
2018-09-01T15:33:33.108Z,55.10
2018-09-01T15:36:02.596Z,54.80
2018-09-01T15:38:32.168Z,54.30
2018-09-01T15:41:01.357Z,55.70
2018-09-01T15:43:30.503Z,56.80
2018-09-01T15:45:59.354Z,57.90
2018-09-01T15:48:29.036Z,57.50
2018-09-01T15:50:57.862Z,57.40
2018-09-01T15:53:26.767Z,57.60
2018-09-01T15:55:57.441Z,57.80
2018-09-01T15:58:26.676Z,58.20
2018-09-01T16:00:55.794Z,58.40
2018-09-01T16:03:25.594Z,58.50
2018-09-01T16:05:54.588Z,58.00
2018-09-01T16:08:23.758Z,58.10
2018-09-01T16:10:52.632Z,57.90
2018-09-01T16:13:21.714Z,58.70
2018-09-01T16:15:50.729Z,57.30
2018-09-01T16:18:20.363Z,57.90
2018-09-01T16:20:49.499Z,58.30
2018-09-01T16:23:18.671Z,58.10
2018-09-01T16:25:47.969Z,57.90
2018-09-01T16:28:17.430Z,58.10
2018-09-01T16:30:46.654Z,58.10
2018-09-01T16:33:16.483Z,58.10
2018-09-01T16:35:45.317Z,58.30
2018-09-01T16:38:14.608Z,58.20
2018-09-01T16:40:43.481Z,58.80
2018-09-01T16:43:12.293Z,58.70
2018-09-01T16:45:41.619Z,58.80
2018-09-01T16:48:10.957Z,58.60
2018-09-01T16:50:39.901Z,58.80
2018-09-01T16:53:09.075Z,58.80
2018-09-01T16:55:37.960Z,58.80
2018-09-01T16:58:07.110Z,57.90
2018-09-01T17:00:36.485Z,57.30
2018-09-01T17:03:06.157Z,58.00
2018-09-01T17:05:35.025Z,58.10
2018-09-01T17:08:04.345Z,58.80
2018-09-01T17:10:33.600Z,59.90
2018-09-01T17:13:02.572Z,59.90
2018-09-01T17:15:31.674Z,60.00
2018-09-01T17:18:01.118Z,60.40
2018-09-01T17:20:30.506Z,59.70
2018-09-01T17:22:59.652Z,59.80
2018-09-01T17:25:29.534Z,59.70
2018-09-01T17:27:58.892Z,59.20
2018-09-01T17:30:28.457Z,59.10
2018-09-01T17:32:57.958Z,59.40
2018-09-01T17:35:27.981Z,59.50
2018-09-01T17:38:06.657Z,58.50
2018-09-01T17:40:35.765Z,58.70
2018-09-01T17:43:05.414Z,58.90
2018-09-01T17:45:34.790Z,61.20
2018-09-01T17:48:03.972Z,60.50
2018-09-01T17:50:33.106Z,59.20
2018-09-01T17:53:02.490Z,60.40
2018-09-01T17:55:31.989Z,59.80
2018-09-01T17:58:01.120Z,59.60
2018-09-01T18:00:30.622Z,59.20
2018-09-01T18:02:59.653Z,59.90
2018-09-01T18:05:28.688Z,59.20
2018-09-01T18:07:57.991Z,59.70
2018-09-01T18:10:27.379Z,59.90
2018-09-01T18:12:56.230Z,61.30
2018-09-01T18:15:25.868Z,60.00
2018-09-01T18:17:55.605Z,59.30
2018-09-01T18:20:24.993Z,60.00
2018-09-01T18:22:53.893Z,59.60
2018-09-01T18:25:22.770Z,59.60
2018-09-01T18:27:51.917Z,59.90
2018-09-01T18:30:27.656Z,59.70
2018-09-01T18:32:56.906Z,60.70
2018-09-01T18:35:26.575Z,61.00
2018-09-01T18:37:56.805Z,59.80
2018-09-01T18:40:26.081Z,60.20
2018-09-01T18:42:55.436Z,60.80
2018-09-01T18:45:24.542Z,60.30
2018-09-01T18:47:54.176Z,60.30
2018-09-01T18:50:23.424Z,60.30
2018-09-01T18:52:52.370Z,60.50
2018-09-01T18:55:21.188Z,60.50
2018-09-01T18:57:50.271Z,59.90
2018-09-01T19:00:19.263Z,60.00
2018-09-01T19:02:48.551Z,60.20
2018-09-01T19:05:18.352Z,60.20
2018-09-01T19:07:47.813Z,60.80
2018-09-01T19:10:19.342Z,60.30
2018-09-01T19:12:48.433Z,60.60
2018-09-01T19:15:18.271Z,60.00
2018-09-01T19:17:48.091Z,59.90
2018-09-01T19:20:17.564Z,60.20
2018-09-01T19:22:47.516Z,61.30
2018-09-01T19:25:17.117Z,60.50
2018-09-01T19:27:46.316Z,60.60
2018-09-01T19:30:17.041Z,60.50
2018-09-01T19:32:47.096Z,60.60
2018-09-01T19:35:17.584Z,60.80
2018-09-01T19:37:46.911Z,60.50
2018-09-01T19:40:16.283Z,61.40
2018-09-01T19:42:46.044Z,60.60
2018-09-01T19:45:15.436Z,60.60
2018-09-01T19:47:44.904Z,60.30
2018-09-01T19:50:14.637Z,60.00
2018-09-01T19:52:44.546Z,60.40
2018-09-01T19:55:14.333Z,60.70
2018-09-01T19:57:43.721Z,61.60
2018-09-01T20:00:13.608Z,62.10
2018-09-01T20:02:42.759Z,60.80
2018-09-01T20:05:12.351Z,61.20
2018-09-01T20:07:42.004Z,60.90
2018-09-01T20:10:11.383Z,61.30
2018-09-01T20:12:40.885Z,61.70
2018-09-01T20:15:10.541Z,61.60
2018-09-01T20:17:40.598Z,63.20
2018-09-01T20:20:10.473Z,62.10
2018-09-01T20:22:39.558Z,62.40
2018-09-01T20:25:09.218Z,62.30
2018-09-01T20:27:39.128Z,63.30
2018-09-01T20:30:08.708Z,62.80
2018-09-01T20:32:38.059Z,62.90
2018-09-01T20:35:12.799Z,63.00
2018-09-01T20:37:42.081Z,63.30
2018-09-01T20:40:11.016Z,63.10
2018-09-01T20:42:40.296Z,63.70
2018-09-01T20:45:09.444Z,63.10
2018-09-01T20:47:38.555Z,63.60
2018-09-01T20:50:07.680Z,63.70
2018-09-01T20:52:36.803Z,63.40
2018-09-01T20:55:06.422Z,63.60
2018-09-01T20:57:36.870Z,63.60
2018-09-01T21:00:06.563Z,64.40
2018-09-01T21:02:35.773Z,64.10
2018-09-01T21:05:04.918Z,65.10
2018-09-01T21:07:33.863Z,64.40
2018-09-01T21:10:03.307Z,64.70
2018-09-01T21:12:33.614Z,63.90
2018-09-01T21:15:03.104Z,64.50
2018-09-01T21:17:32.472Z,65.30
2018-09-01T21:20:03.981Z,65.40
2018-09-01T21:22:33.011Z,65.70
2018-09-01T21:25:02.016Z,65.60
2018-09-01T21:27:30.900Z,65.40
2018-09-01T21:30:00.166Z,65.10
2018-09-01T21:32:29.357Z,65.70
2018-09-01T21:34:58.948Z,66.30
2018-09-01T21:37:27.963Z,65.90
2018-09-01T21:39:56.789Z,66.20
2018-09-01T21:42:25.929Z,66.20
2018-09-01T21:44:55.429Z,65.50
2018-09-01T21:47:24.214Z,65.40
2018-09-01T21:49:53.064Z,66.20
2018-09-01T21:52:21.901Z,65.70
2018-09-01T21:54:50.851Z,66.10
2018-09-01T21:57:20.224Z,66.60
2018-09-01T21:59:49.122Z,66.70
2018-09-01T22:02:22.690Z,66.00
2018-09-01T22:04:57.230Z,66.30
2018-09-01T22:07:26.028Z,66.30
2018-09-01T22:09:55.640Z,66.00
2018-09-01T22:12:24.964Z,65.50
2018-09-01T22:14:54.672Z,65.90
2018-09-01T22:17:24.140Z,65.10
2018-09-01T22:19:53.070Z,65.60
2018-09-01T22:22:22.279Z,64.60
2018-09-01T22:24:51.569Z,64.60
2018-09-01T22:27:20.526Z,65.40
2018-09-01T22:29:49.418Z,64.90
2018-09-01T22:32:18.381Z,65.50
2018-09-01T22:34:47.337Z,66.40
2018-09-01T22:37:16.447Z,65.30
2018-09-01T22:39:45.770Z,66.20
2018-09-01T22:42:15.064Z,66.20
2018-09-01T22:44:44.474Z,66.20
2018-09-01T22:47:18.742Z,67.10
2018-09-01T22:49:47.794Z,66.50
2018-09-01T22:52:17.857Z,66.00
2018-09-01T22:54:46.713Z,66.40
2018-09-01T22:57:15.638Z,66.40
2018-09-01T22:59:44.625Z,67.40
2018-09-01T23:02:14.233Z,67.20
2018-09-01T23:04:43.015Z,66.80
2018-09-01T23:07:13.066Z,67.20
2018-09-01T23:09:41.857Z,67.50
2018-09-01T23:12:11.286Z,67.80
2018-09-01T23:14:40.728Z,68.80
2018-09-01T23:17:09.520Z,67.90
2018-09-01T23:19:38.768Z,69.00
2018-09-01T23:22:08.450Z,69.70
2018-09-01T23:24:37.262Z,70.70
2018-09-01T23:27:06.449Z,71.10
2018-09-01T23:29:35.531Z,72.10
2018-09-01T23:32:04.368Z,70.60
2018-09-01T23:34:33.860Z,70.90
2018-09-01T23:37:02.741Z,71.60
2018-09-01T23:39:31.860Z,71.40
2018-09-01T23:42:01.766Z,73.10
2018-09-01T23:44:30.773Z,72.40
2018-09-01T23:46:59.716Z,73.30
2018-09-01T23:49:28.829Z,74.30
2018-09-01T23:51:57.675Z,73.20
2018-09-01T23:54:26.865Z,74.80
2018-09-01T23:56:56.369Z,74.80
2018-09-01T23:59:25.505Z,75.10
